createdAt,value
2022-11-16T00:00:16.630Z,4.60
2022-11-16T00:02:43.754Z,4.70
2022-11-16T00:05:10.842Z,4.57
2022-11-16T00:07:38.185Z,5.10
2022-11-16T00:10:05.612Z,4.87
2022-11-16T00:12:32.703Z,4.37
2022-11-16T00:14:59.741Z,4.50
2022-11-16T00:17:26.845Z,4.57
2022-11-16T00:19:53.923Z,5.40
2022-11-16T00:22:21.188Z,4.23
2022-11-16T00:24:48.256Z,4.73
2022-11-16T00:27:15.341Z,4.90
2022-11-16T00:29:42.444Z,5.33
2022-11-16T00:32:09.530Z,4.70
2022-11-16T00:34:36.575Z,8.37
2022-11-16T00:37:03.736Z,9.63
2022-11-16T00:39:30.802Z,7.23
2022-11-16T00:41:57.974Z,5.60
2022-11-16T00:44:25.372Z,5.20
2022-11-16T00:46:52.655Z,6.07
2022-11-16T00:49:19.721Z,4.77
2022-11-16T00:51:46.834Z,4.53
2022-11-16T00:54:13.919Z,4.77
2022-11-16T00:56:41.078Z,4.20
2022-11-16T00:59:08.219Z,5.47
2022-11-16T01:01:35.411Z,4.90
2022-11-16T01:04:02.576Z,5.23
2022-11-16T01:06:29.657Z,4.60
2022-11-16T01:08:56.786Z,5.07
2022-11-16T01:11:42.667Z,7.63
2022-11-16T01:14:10.203Z,6.97
2022-11-16T01:16:37.493Z,5.63
2022-11-16T01:19:04.987Z,6.53
2022-11-16T01:21:32.204Z,5.73
2022-11-16T01:23:59.352Z,5.73
2022-11-16T01:26:26.466Z,5.83
2022-11-16T01:28:53.816Z,5.13
2022-11-16T01:31:20.943Z,5.60
2022-11-16T01:33:48.065Z,13.10
2022-11-16T01:36:15.269Z,6.13
2022-11-16T01:38:43.240Z,6.57
2022-11-16T01:41:13.529Z,5.77
2022-11-16T01:43:54.233Z,5.57
2022-11-16T01:46:21.434Z,8.23
2022-11-16T01:48:50.356Z,5.53
2022-11-16T01:51:17.647Z,5.37
2022-11-16T01:53:44.798Z,8.47
2022-11-16T01:56:12.005Z,7.43
2022-11-16T01:58:39.137Z,8.07
2022-11-16T02:01:06.302Z,5.93
2022-11-16T02:03:33.605Z,8.60
2022-11-16T02:06:09.915Z,6.53
2022-11-16T02:08:58.389Z,11.10
2022-11-16T02:11:41.107Z,6.00
2022-11-16T02:14:27.003Z,6.10
2022-11-16T02:17:20.784Z,6.97
2022-11-16T02:19:57.203Z,7.47
2022-11-16T02:22:37.129Z,8.17
2022-11-16T02:25:04.204Z,8.47
2022-11-16T02:27:54.272Z,6.30
2022-11-16T02:30:22.079Z,6.93
2022-11-16T02:32:52.640Z,8.27
2022-11-16T02:35:26.124Z,7.33
2022-11-16T02:38:02.509Z,6.60
2022-11-16T02:40:31.834Z,7.30
2022-11-16T02:43:01.551Z,7.20
2022-11-16T02:45:30.535Z,7.70
2022-11-16T02:48:00.884Z,8.60
2022-11-16T02:50:28.078Z,10.50
2022-11-16T02:52:55.717Z,10.77
2022-11-16T02:55:23.323Z,10.80
2022-11-16T02:57:58.297Z,7.57
2022-11-16T03:00:31.861Z,10.87
2022-11-16T03:03:08.066Z,11.87
2022-11-16T03:05:58.244Z,8.37
2022-11-16T03:08:31.982Z,11.80
2022-11-16T03:11:21.203Z,7.67
2022-11-16T03:13:49.236Z,8.47
2022-11-16T03:16:36.701Z,8.10
2022-11-16T03:19:06.244Z,8.43
2022-11-16T03:21:39.483Z,9.23
2022-11-16T03:24:07.192Z,7.93
2022-11-16T03:26:39.809Z,9.40
2022-11-16T03:29:15.118Z,8.10
2022-11-16T03:31:48.386Z,7.60
2022-11-16T03:34:17.283Z,9.63
2022-11-16T03:36:46.058Z,8.63
2022-11-16T03:39:24.263Z,8.30
2022-11-16T03:41:51.443Z,10.03
2022-11-16T03:44:19.614Z,10.30
2022-11-16T03:46:47.549Z,9.80
2022-11-16T03:49:15.868Z,10.20
2022-11-16T03:51:43.025Z,9.53
2022-11-16T03:54:10.083Z,8.80
2022-11-16T03:56:37.152Z,8.93
2022-11-16T03:59:04.279Z,9.27
2022-11-16T04:01:31.406Z,12.43
2022-11-16T04:03:58.446Z,9.63
2022-11-16T04:06:44.244Z,12.50
2022-11-16T04:09:30.377Z,11.73
2022-11-16T04:12:16.275Z,11.03
2022-11-16T04:15:02.187Z,10.80
2022-11-16T04:17:48.691Z,12.40
2022-11-16T04:20:34.485Z,12.93
2022-11-16T04:23:25.629Z,10.23
2022-11-16T04:25:52.823Z,10.40
2022-11-16T04:28:28.186Z,10.50
2022-11-16T04:31:15.743Z,11.40
2022-11-16T04:34:01.633Z,10.57
2022-11-16T04:36:47.809Z,11.37
2022-11-16T04:39:14.986Z,10.23
2022-11-16T04:42:01.056Z,10.97
2022-11-16T04:44:50.877Z,10.03
2022-11-16T04:47:17.921Z,10.57
2022-11-16T04:49:45.155Z,10.60
2022-11-16T04:52:12.293Z,10.60
2022-11-16T04:54:39.531Z,11.33
2022-11-16T04:57:06.579Z,11.33
2022-11-16T04:59:33.623Z,10.60
2022-11-16T05:02:09.700Z,11.90
2022-11-16T05:04:37.797Z,9.80
2022-11-16T05:07:10.699Z,14.17
2022-11-16T05:09:47.751Z,11.23
2022-11-16T05:12:19.410Z,12.67
2022-11-16T05:14:46.724Z,14.27
2022-11-16T05:17:14.226Z,11.70
2022-11-16T05:20:00.009Z,11.87
2022-11-16T05:22:27.100Z,12.77
2022-11-16T05:24:54.468Z,9.70
2022-11-16T05:27:23.014Z,10.47
2022-11-16T05:29:50.271Z,11.07
2022-11-16T05:32:17.607Z,11.30
2022-11-16T05:34:44.690Z,9.93
2022-11-16T05:37:12.285Z,10.17
2022-11-16T05:39:39.740Z,10.17
2022-11-16T05:42:07.024Z,13.27
2022-11-16T05:44:34.363Z,12.50
2022-11-16T05:47:01.929Z,15.73
2022-11-16T05:49:28.976Z,10.87
2022-11-16T05:51:56.200Z,12.70
2022-11-16T05:54:27.135Z,10.37
2022-11-16T05:56:54.921Z,10.87
2022-11-16T05:59:22.932Z,10.70
2022-11-16T06:01:50.328Z,10.90
2022-11-16T06:06:58.430Z,12.10
2022-11-16T06:09:25.510Z,12.83
2022-11-16T06:11:52.662Z,12.80
2022-11-16T06:14:19.768Z,11.47
2022-11-16T06:16:47.004Z,11.23
2022-11-16T06:19:14.136Z,11.93
2022-11-16T06:21:41.516Z,10.03
2022-11-16T06:24:09.636Z,14.30
2022-11-16T06:26:37.184Z,11.03
2022-11-16T06:29:04.351Z,9.57
2022-11-16T06:37:39.759Z,10.93
2022-11-16T06:40:07.277Z,11.03
2022-11-16T06:42:34.376Z,10.60
2022-11-16T06:47:46.769Z,10.70
2022-11-16T06:50:13.436Z,16.63
2022-11-16T06:52:40.099Z,11.80
2022-11-16T06:55:07.212Z,13.47
2022-11-16T06:57:35.573Z,12.27
2022-11-16T07:00:02.590Z,10.37
2022-11-16T07:02:29.206Z,10.63
2022-11-16T07:05:00.606Z,9.87
2022-11-16T07:07:30.062Z,10.63
2022-11-16T07:09:56.843Z,10.63
2022-11-16T07:12:23.507Z,10.60
2022-11-16T07:14:50.137Z,13.00
2022-11-16T07:17:16.778Z,12.03
2022-11-16T07:19:43.905Z,11.53
2022-11-16T07:22:10.669Z,9.50
2022-11-16T07:24:37.316Z,11.27
2022-11-16T07:27:04.135Z,11.33
2022-11-16T07:29:31.428Z,12.23
2022-11-16T07:31:58.064Z,14.50
2022-11-16T07:34:24.726Z,10.40
2022-11-16T07:36:51.319Z,14.23
2022-11-16T07:39:18.002Z,10.60
2022-11-16T07:41:45.143Z,9.43
2022-11-16T07:44:12.344Z,10.07
2022-11-16T07:46:48.173Z,9.07
2022-11-16T07:49:17.235Z,12.90
2022-11-16T07:51:44.255Z,8.77
2022-11-16T07:54:15.199Z,10.27
2022-11-16T07:56:48.826Z,7.77
2022-11-16T07:59:24.924Z,9.40
2022-11-16T08:01:52.360Z,6.90
2022-11-16T08:04:19.035Z,8.00
2022-11-16T08:06:46.918Z,7.07
2022-11-16T08:09:17.113Z,9.53
2022-11-16T08:11:43.806Z,8.67
2022-11-16T08:14:11.701Z,6.67
2022-11-16T08:16:38.557Z,6.20
2022-11-16T08:19:05.424Z,7.10
2022-11-16T08:21:32.100Z,7.27
2022-11-16T08:27:21.125Z,9.43
2022-11-16T08:29:48.169Z,7.20
2022-11-16T08:32:15.342Z,8.30
2022-11-16T08:34:42.374Z,10.20
2022-11-16T08:37:09.500Z,7.37
2022-11-16T08:39:36.599Z,7.17
2022-11-16T08:42:03.766Z,7.90
2022-11-16T08:44:30.939Z,8.47
2022-11-16T08:46:58.093Z,6.50
2022-11-16T08:49:25.306Z,8.30
2022-11-16T08:51:52.600Z,6.43
2022-11-16T08:54:20.106Z,10.73
2022-11-16T08:56:47.197Z,15.60
2022-11-16T08:59:14.310Z,7.13
2022-11-16T09:01:41.349Z,8.57
2022-11-16T09:04:08.449Z,5.80
2022-11-16T09:06:36.103Z,6.33
2022-11-16T09:09:03.248Z,10.50
2022-11-16T09:11:30.371Z,5.73
2022-11-16T09:13:57.534Z,8.27
2022-11-16T09:16:24.673Z,6.40
2022-11-16T09:18:52.098Z,8.00
2022-11-16T09:21:23.830Z,7.33
2022-11-16T09:23:51.155Z,9.70
2022-11-16T09:26:21.127Z,7.70
2022-11-16T09:28:48.711Z,9.40
2022-11-16T09:31:20.377Z,8.37
2022-11-16T09:33:50.508Z,9.53
2022-11-16T09:36:17.659Z,10.53
2022-11-16T09:41:38.575Z,9.03
2022-11-16T09:44:12.242Z,10.10
2022-11-16T09:46:42.033Z,10.33
2022-11-16T09:49:17.825Z,11.20
2022-11-16T09:51:47.355Z,11.83
2022-11-16T09:54:35.666Z,12.70
2022-11-16T09:57:11.075Z,14.30
2022-11-16T09:59:42.202Z,10.03
2022-11-16T10:02:30.381Z,10.07
2022-11-16T10:05:10.540Z,12.53
2022-11-16T10:07:41.731Z,11.37
2022-11-16T10:10:13.272Z,10.97
2022-11-16T10:12:49.398Z,11.30
2022-11-16T10:15:24.822Z,13.63
2022-11-16T10:18:11.565Z,10.30
2022-11-16T10:20:38.583Z,12.23
2022-11-16T10:23:12.875Z,12.97
2022-11-16T10:25:47.107Z,10.67
2022-11-16T10:28:22.260Z,10.67
2022-11-16T10:30:59.617Z,11.93
2022-11-16T10:33:35.405Z,15.07
2022-11-16T10:36:05.509Z,13.33
2022-11-16T10:38:33.105Z,13.10
2022-11-16T10:41:20.445Z,13.77
2022-11-16T10:43:48.564Z,8.90
2022-11-16T10:46:24.957Z,8.87
2022-11-16T10:48:56.352Z,13.80
2022-11-16T10:51:23.560Z,11.03
2022-11-16T10:53:53.139Z,10.23
2022-11-16T10:56:22.644Z,9.70
2022-11-16T10:58:49.897Z,8.07
2022-11-16T11:01:30.492Z,7.27
2022-11-16T11:03:57.761Z,8.37
2022-11-16T11:06:26.480Z,6.30
2022-11-16T11:08:53.651Z,7.83
2022-11-16T11:12:00.654Z,7.53
2022-11-16T11:14:27.927Z,4.93
2022-11-16T11:16:55.040Z,7.67
2022-11-16T11:19:27.435Z,4.37
2022-11-16T11:22:00.840Z,10.77
2022-11-16T11:24:45.381Z,10.83
2022-11-16T11:27:13.077Z,17.03
2022-11-16T11:29:41.975Z,6.53
2022-11-16T11:32:18.033Z,5.87
2022-11-16T11:34:49.806Z,5.13
2022-11-16T11:37:19.696Z,5.07
2022-11-16T11:39:46.811Z,3.87
2022-11-16T11:42:13.937Z,8.57
2022-11-16T11:44:47.461Z,7.67
2022-11-16T11:50:20.521Z,6.43
2022-11-16T11:53:06.125Z,8.47
2022-11-16T11:55:33.185Z,8.47
2022-11-16T11:58:01.957Z,7.80
2022-11-16T12:00:34.110Z,4.63
2022-11-16T12:03:27.971Z,6.03
2022-11-16T12:05:58.192Z,4.00
2022-11-16T12:08:43.866Z,6.93
2022-11-16T12:11:21.641Z,8.97
2022-11-16T12:13:53.566Z,8.37
2022-11-16T12:16:39.595Z,7.10
2022-11-16T12:19:23.005Z,5.67
2022-11-16T12:22:02.408Z,5.70
2022-11-16T12:24:47.740Z,4.07
2022-11-16T12:27:35.088Z,8.27
2022-11-16T12:30:07.978Z,9.90
2022-11-16T12:32:40.883Z,6.10
2022-11-16T12:35:16.948Z,5.63
2022-11-16T12:37:55.663Z,4.20
2022-11-16T12:40:41.484Z,3.27
2022-11-16T12:43:14.736Z,3.87
2022-11-16T12:45:41.795Z,2.87
2022-11-16T12:48:11.856Z,4.00
2022-11-16T12:50:38.908Z,5.43
2022-11-16T12:53:09.065Z,2.97
2022-11-16T12:55:38.918Z,5.07
2022-11-16T13:01:14.881Z,3.80
2022-11-16T13:03:46.889Z,6.53
2022-11-16T13:06:20.621Z,4.00
2022-11-16T13:08:51.366Z,4.07
2022-11-16T13:11:23.954Z,4.43
2022-11-16T13:13:54.015Z,2.63
2022-11-16T13:16:21.836Z,7.77
2022-11-16T13:18:49.127Z,5.50
2022-11-16T13:21:19.552Z,2.13
2022-11-16T13:23:52.590Z,2.67
2022-11-16T13:26:22.911Z,5.03
2022-11-16T13:28:54.107Z,3.87
2022-11-16T13:31:26.370Z,7.10
2022-11-16T13:33:59.443Z,7.00
2022-11-16T13:36:32.244Z,7.33
2022-11-16T13:38:59.334Z,1.83
2022-11-16T13:41:28.361Z,3.93
2022-11-16T13:43:55.662Z,5.37
2022-11-16T13:46:54.359Z,5.37
2022-11-16T13:49:22.238Z,4.27
2022-11-16T13:51:53.169Z,4.50
2022-11-16T13:54:45.775Z,1.83
2022-11-16T13:57:20.008Z,2.80
2022-11-16T13:59:48.475Z,5.47
2022-11-16T14:02:30.972Z,6.00
2022-11-16T14:05:06.700Z,6.03
2022-11-16T14:07:40.497Z,2.83
2022-11-16T14:10:08.114Z,3.37
2022-11-16T14:12:38.079Z,6.03
2022-11-16T14:15:16.287Z,5.77
2022-11-16T14:17:50.219Z,4.23
2022-11-16T14:20:25.843Z,2.37
2022-11-16T14:22:57.954Z,4.57
2022-11-16T14:25:34.662Z,3.07
2022-11-16T14:28:20.530Z,5.13
2022-11-16T14:30:53.958Z,2.97
2022-11-16T14:33:29.203Z,5.53
2022-11-16T14:35:56.470Z,7.13
2022-11-16T14:38:26.293Z,4.80
2022-11-16T14:40:59.454Z,8.40
2022-11-16T14:43:46.629Z,4.67
2022-11-16T14:46:16.484Z,3.60
2022-11-16T14:48:44.994Z,3.97
2022-11-16T14:51:15.083Z,3.07
2022-11-16T14:54:05.323Z,5.03
2022-11-16T14:56:32.429Z,7.10
2022-11-16T14:59:00.627Z,6.90
2022-11-16T15:01:30.732Z,2.90
2022-11-16T15:04:12.936Z,8.33
2022-11-16T15:06:42.862Z,2.57
2022-11-16T15:09:14.362Z,3.40
2022-11-16T15:12:01.532Z,3.80
2022-11-16T15:14:33.444Z,2.93
2022-11-16T15:17:04.159Z,5.37
2022-11-16T15:19:31.897Z,3.30
2022-11-16T15:22:00.085Z,4.67
2022-11-16T15:24:32.172Z,5.33
2022-11-16T15:27:22.929Z,2.90
2022-11-16T15:29:50.017Z,4.90
2022-11-16T15:32:17.466Z,5.60
2022-11-16T15:34:48.333Z,8.20
2022-11-16T15:37:26.650Z,8.73
2022-11-16T15:39:54.260Z,7.30
2022-11-16T15:42:21.828Z,4.77
2022-11-16T15:44:48.972Z,10.53
2022-11-16T15:47:16.829Z,8.93
2022-11-16T15:49:44.265Z,4.30
2022-11-16T15:52:11.920Z,10.67
2022-11-16T15:54:57.793Z,6.73
2022-11-16T15:57:25.464Z,12.03
2022-11-16T15:59:56.291Z,5.73
2022-11-16T16:02:27.651Z,8.17
2022-11-16T16:04:55.026Z,8.07
2022-11-16T16:07:38.342Z,8.60
2022-11-16T16:10:25.320Z,3.40
2022-11-16T16:12:56.621Z,5.40
2022-11-16T16:15:31.364Z,6.47
2022-11-16T16:17:59.397Z,10.43
2022-11-16T16:20:28.719Z,7.30
2022-11-16T16:23:05.806Z,7.10
2022-11-16T16:25:34.075Z,11.90
2022-11-16T16:28:01.256Z,11.63
2022-11-16T16:30:29.131Z,6.83
2022-11-16T16:32:56.368Z,8.97
2022-11-16T16:35:24.705Z,8.90
2022-11-16T16:37:52.536Z,6.43
2022-11-16T16:40:19.897Z,11.10
2022-11-16T16:42:50.865Z,6.07
2022-11-16T16:45:20.425Z,8.37
2022-11-16T16:47:47.909Z,5.60
2022-11-16T16:50:15.056Z,4.43
2022-11-16T16:52:42.185Z,4.63
2022-11-16T16:55:09.500Z,5.03
2022-11-16T16:57:36.551Z,8.37
2022-11-16T17:00:04.108Z,6.50
2022-11-16T17:02:31.235Z,4.87
2022-11-16T17:04:58.333Z,6.67
2022-11-16T17:07:25.476Z,9.10
2022-11-16T17:09:52.588Z,4.03
2022-11-16T17:12:19.641Z,5.10
2022-11-16T17:14:51.397Z,9.90
2022-11-16T17:17:24.150Z,7.13
2022-11-16T17:19:51.568Z,4.33
2022-11-16T17:22:19.132Z,7.00
2022-11-16T17:24:46.275Z,7.40
2022-11-16T17:27:13.690Z,6.23
2022-11-16T17:29:40.770Z,6.83
2022-11-16T17:32:08.000Z,7.70
2022-11-16T17:34:35.499Z,8.97
2022-11-16T17:40:41.750Z,6.77
2022-11-16T17:43:48.711Z,9.83
2022-11-16T17:50:18.991Z,4.50
2022-11-16T17:56:14.020Z,4.13
2022-11-16T17:58:41.666Z,6.87
2022-11-16T18:01:11.669Z,8.13
2022-11-16T18:03:39.320Z,7.27
2022-11-16T18:06:06.487Z,7.87
2022-11-16T18:08:34.121Z,7.03
2022-11-16T18:11:08.077Z,6.20
2022-11-16T18:13:35.571Z,6.77
2022-11-16T18:16:06.854Z,6.93
2022-11-16T18:18:34.731Z,7.80
2022-11-16T18:21:02.039Z,7.00
2022-11-16T18:23:29.469Z,6.97
2022-11-16T18:25:56.597Z,4.40
2022-11-16T18:28:23.778Z,9.60
2022-11-16T18:30:50.929Z,7.43
2022-11-16T18:33:18.489Z,11.87
2022-11-16T18:35:53.089Z,7.33
2022-11-16T18:41:20.944Z,7.03
2022-11-16T18:43:52.296Z,8.10
2022-11-16T18:46:20.125Z,7.70
2022-11-16T18:48:47.496Z,8.23
2022-11-16T18:51:15.527Z,5.03
2022-11-16T18:53:42.844Z,6.93
2022-11-16T18:56:11.753Z,4.93
2022-11-16T18:58:54.611Z,6.60
2022-11-16T19:01:23.071Z,8.27
2022-11-16T19:03:50.694Z,8.83
2022-11-16T19:06:18.214Z,6.37
2022-11-16T19:08:50.411Z,7.30
2022-11-16T19:11:21.290Z,6.40
2022-11-16T19:13:52.185Z,5.63
2022-11-16T19:16:19.269Z,4.57
2022-11-16T19:18:46.318Z,9.20
2022-11-16T19:21:14.605Z,5.87
2022-11-16T19:23:42.972Z,6.70
2022-11-16T19:26:10.186Z,8.53
2022-11-16T19:28:37.912Z,8.70
2022-11-16T19:31:09.015Z,10.20
2022-11-16T19:33:36.770Z,7.17
2022-11-16T19:36:07.616Z,7.80
2022-11-16T19:38:34.946Z,7.83
2022-11-16T19:41:02.000Z,9.93
2022-11-16T19:43:29.143Z,7.87
2022-11-16T19:45:56.283Z,6.07
2022-11-16T19:48:23.359Z,5.87
2022-11-16T19:50:50.446Z,5.77
2022-11-16T19:53:17.534Z,6.97
2022-11-16T19:55:52.898Z,5.67
2022-11-16T19:58:19.941Z,4.17
2022-11-16T20:00:47.064Z,5.17
2022-11-16T20:03:14.132Z,5.13
2022-11-16T20:05:41.182Z,7.73
2022-11-16T20:08:08.233Z,5.37
2022-11-16T20:10:35.311Z,9.57
2022-11-16T20:13:19.349Z,5.90
2022-11-16T20:15:47.350Z,6.90
2022-11-16T20:18:14.601Z,6.90
2022-11-16T20:20:41.610Z,9.43
2022-11-16T20:23:08.657Z,7.40
2022-11-16T20:25:40.520Z,10.83
2022-11-16T20:28:07.629Z,8.80
2022-11-16T20:30:34.661Z,8.73
2022-11-16T20:33:01.719Z,6.37
2022-11-16T20:35:28.754Z,6.60
2022-11-16T20:37:55.857Z,7.13
2022-11-16T20:40:22.989Z,9.63
2022-11-16T20:42:50.074Z,9.43
2022-11-16T20:45:17.175Z,7.60
2022-11-16T20:47:44.273Z,6.50
2022-11-16T20:50:11.322Z,3.87
2022-11-16T20:52:43.062Z,6.30
2022-11-16T20:55:11.361Z,10.90
2022-11-16T20:57:38.401Z,11.77
2022-11-16T21:00:05.731Z,9.73
2022-11-16T21:02:32.762Z,6.87
2022-11-16T21:05:00.562Z,7.17
2022-11-16T21:07:27.862Z,6.37
2022-11-16T21:10:13.603Z,7.30
2022-11-16T21:12:59.232Z,5.07
2022-11-16T21:15:26.245Z,12.70
2022-11-16T21:17:53.288Z,13.97
2022-11-16T21:20:27.407Z,9.73
2022-11-16T21:22:55.196Z,9.83
2022-11-16T21:25:22.302Z,8.37
2022-11-16T21:27:49.383Z,11.53
2022-11-16T21:30:16.707Z,11.23
2022-11-16T21:32:43.786Z,10.17
2022-11-16T21:35:10.821Z,8.70
2022-11-16T21:37:37.909Z,9.50
2022-11-16T21:40:05.151Z,7.10
2022-11-16T21:42:32.241Z,9.57
2022-11-16T21:44:59.289Z,7.70
2022-11-16T21:47:26.323Z,10.03
2022-11-16T21:50:24.789Z,10.50
2022-11-16T21:52:40.503Z,9.07
2022-11-16T21:55:07.693Z,8.87
2022-11-16T21:57:34.910Z,8.57
2022-11-16T22:00:02.096Z,9.30
2022-11-16T22:02:29.208Z,8.00
2022-11-16T22:05:14.800Z,6.93
2022-11-16T22:07:42.341Z,10.63
2022-11-16T22:10:10.552Z,13.77
2022-11-16T22:12:37.891Z,9.07
2022-11-16T22:15:05.989Z,7.87
2022-11-16T22:17:33.191Z,11.40
2022-11-16T22:20:00.299Z,11.63
2022-11-16T22:22:27.389Z,10.10
2022-11-16T22:24:54.645Z,6.37
2022-11-16T22:27:21.796Z,10.70
2022-11-16T22:29:48.864Z,9.90
2022-11-16T22:32:15.971Z,9.50
2022-11-16T22:34:43.320Z,7.00
2022-11-16T22:37:10.346Z,12.17
2022-11-16T22:39:37.891Z,7.67
2022-11-16T22:42:05.205Z,10.17
2022-11-16T22:44:32.261Z,7.50
2022-11-16T22:46:59.313Z,6.50
2022-11-16T22:49:26.420Z,9.80
2022-11-16T22:51:53.835Z,7.40
2022-11-16T22:54:24.585Z,12.00
2022-11-16T22:56:55.465Z,7.30
2022-11-16T22:59:22.657Z,6.73
2022-11-16T23:01:49.676Z,6.40
2022-11-16T23:04:16.852Z,8.17
2022-11-16T23:06:43.920Z,6.63
2022-11-16T23:09:10.985Z,8.80
2022-11-16T23:11:56.517Z,10.83
2022-11-16T23:14:42.536Z,5.27
2022-11-16T23:17:09.631Z,8.70
2022-11-16T23:19:55.605Z,7.43
2022-11-16T23:22:41.596Z,9.80
2022-11-16T23:25:28.985Z,10.10
2022-11-16T23:28:01.922Z,7.87
2022-11-16T23:30:29.033Z,6.37
2022-11-16T23:32:56.198Z,7.67
2022-11-16T23:35:23.531Z,8.17
2022-11-16T23:37:57.672Z,6.83
2022-11-16T23:40:26.238Z,10.40
2022-11-16T23:43:12.269Z,8.47
2022-11-16T23:45:39.919Z,7.53
2022-11-16T23:48:07.807Z,5.23
2022-11-16T23:50:34.961Z,6.73
2022-11-16T23:53:02.326Z,8.67
2022-11-16T23:55:29.591Z,14.77
2022-11-16T23:57:56.730Z,8.90
